Time;durP1;ratioP1;P1;durP2;ratioP2;P2;SDS_P1;SDS_P2;PMS_P1;PMS_P2;Temp;Humidity;BMP_temperature;BMP_pressure;BME280_temperature;BME280_humidity;BME280_pressure;Samples;Min_cycle;Max_cycle;Signal;HPM_P1;HPM_P2
2023/05/27 00:00:07;;;;;;;;;;;;;;;-144.99;95.68;52325.81;5046876;28;19939;-67
2023/05/27 00:02:33;;;;;;;;;;;;;;;-144.99;95.81;52333.94;5043354;28;19932;-68
2023/05/27 00:05:00;;;;;;;;;;;;;;;-144.99;95.89;52366.56;5047046;28;19936;-67
2023/05/27 00:07:27;;;;;;;;;;;;;;;-144.99;96.28;52358.41;5046833;28;19937;-69
2023/05/27 00:09:54;;;;;;;;;;;;;;;-144.99;96.24;52333.94;5050256;28;19936;-66
2023/05/27 00:12:21;;;;;;;;;;;;;;;-144.99;96.21;52350.25;5049551;28;19940;-69
2023/05/27 00:14:49;;;;;;;;;;;;;;;-144.99;96.29;52346.19;5061388;28;19979;-71
2023/05/27 00:17:16;;;;;;;;;;;;;;;-144.99;96.89;52366.56;5051476;28;19929;-63
2023/05/27 00:19:44;;;;;;;;;;;;;;;-144.99;97.35;52391.03;5058709;28;19960;-63
2023/05/27 00:22:11;;;;;;;;;;;;;;;-144.99;96.81;52329.88;5047805;28;19938;-63
2023/05/27 00:24:39;;;;;;;;;;;;;;;-144.99;97.48;52350.25;5046690;28;19933;-64
2023/05/27 00:27:05;;;;;;;;;;;;;;;-144.99;97.62;52358.41;5050035;28;19987;-65
2023/05/27 00:29:32;;;;;;;;;;;;;;;-144.99;97.55;52360.44;5040429;28;19928;-63
2023/05/27 00:32:02;;;;;;;;;;;;;;;-144.99;97.52;52362.50;5039920;28;19936;-62
2023/05/27 00:34:29;;;;;;;;;;;;;;;-144.99;97.35;52301.34;5042133;28;21266;-62
2023/05/27 00:36:55;;;;;;;;;;;;;;;-144.99;97.57;52333.94;5042225;28;20589;-67
2023/05/27 00:39:22;;;;;;;;;;;;;;;-144.99;97.71;52348.22;5039640;28;20616;-67
2023/05/27 00:41:52;;;;;;;;;;;;;;;-144.99;97.90;52370.63;5047200;28;19925;-67
2023/05/27 00:44:19;;;;;;;;;;;;;;;-144.99;98.03;52370.63;5050948;28;19931;-66
2023/05/27 00:46:46;;;;;;;;;;;;;;;-144.99;98.24;52395.09;5046370;28;19925;-66
2023/05/27 00:49:14;;;;;;;;;;;;;;;-144.99;98.08;52346.19;5044168;28;19929;-66
2023/05/27 00:51:41;;;;;;;;;;;;;;;-144.99;98.11;52325.81;5042712;28;19940;-64
2023/05/27 00:54:10;;;;;;;;;;;;;;;-144.99;98.46;52378.78;5043693;28;19925;-66
2023/05/27 00:56:37;;;;;;;;;;;;;;;-144.99;98.73;52358.41;5049023;28;19978;-64
2023/05/27 00:59:04;;;;;;;;;;;;;;;-144.99;98.81;52364.53;5058600;28;19935;-64
2023/05/27 01:01:33;;;;;;;;;;;;;;;-144.99;98.51;52346.19;5058642;28;19925;-65
2023/05/27 01:04:00;;;;;;;;;;;;;;;-144.99;98.50;52329.88;5058018;28;19968;-66
2023/05/27 01:06:33;;;;;;;;;;;;;;;-144.99;98.96;52354.34;5054707;28;19929;-67
2023/05/27 01:09:04;;;;;;;;;;;;;;;-144.99;98.74;52368.59;5050206;28;19924;-67
2023/05/27 01:11:35;;;;;;;;;;;;;;;-144.99;98.56;52346.19;5053074;28;19948;-66
2023/05/27 01:14:05;;;;;;;;;;;;;;;-144.99;98.38;52403.25;5050431;28;19970;-67
2023/05/27 01:16:33;;;;;;;;;;;;;;;-144.99;98.95;52358.41;5053443;28;19943;-69
2023/05/27 01:19:02;;;;;;;;;;;;;;;-144.99;98.89;52380.84;5054189;28;19936;-68
2023/05/27 01:21:31;;;;;;;;;;;;;;;-144.99;99.08;52370.63;5053366;28;19925;-69
2023/05/27 01:24:05;;;;;;;;;;;;;;;-144.99;99.05;52370.63;5053057;28;19925;-70
2023/05/27 01:26:32;;;;;;;;;;;;;;;-144.99;99.11;52348.22;5054562;28;20023;-69
2023/05/27 01:28:59;;;;;;;;;;;;;;;-144.99;99.57;52366.56;5048543;28;19940;-70
2023/05/27 01:31:31;;;;;;;;;;;;;;;-144.99;99.65;52350.25;5041945;28;19928;-69
2023/05/27 01:34:01;;;;;;;;;;;;;;;-144.99;99.78;52370.63;5041419;28;20362;-68
2023/05/27 01:36:30;;;;;;;;;;;;;;;-144.99;100.00;52366.56;5048372;28;19932;-68
2023/05/27 01:38:57;;;;;;;;;;;;;;;-144.99;99.90;52325.81;5040388;28;19925;-67
2023/05/27 01:41:26;;;;;;;;;;;;;;;-144.99;99.88;52354.34;5038937;28;20027;-67
2023/05/27 01:43:54;;;;;;;;;;;;;;;-144.99;99.74;52342.09;5045208;28;19932;-70
2023/05/27 01:46:21;;;;;;;;;;;;;;;-144.99;99.77;52321.72;5043284;28;19924;-70
2023/05/27 01:48:47;;;;;;;;;;;;;;;-144.99;99.99;52338.03;5049058;28;19960;-70
2023/05/27 01:51:14;;;;;;;;;;;;;;;-144.99;99.68;52354.34;5045414;28;19960;-69
2023/05/27 01:53:41;;;;;;;;;;;;;;;-144.99;99.45;52362.50;5039945;28;20206;-70
2023/05/27 01:56:08;;;;;;;;;;;;;;;-144.99;99.77;52350.25;5044876;28;19933;-70
2023/05/27 01:58:36;;;;;;;;;;;;;;;-144.99;100.00;52317.66;5053755;28;19956;-70
2023/05/27 02:01:02;;;;;;;;;;;;;;;-144.99;100.00;52374.72;5050775;28;19929;-68
2023/05/27 02:03:29;;;;;;;;;;;;;;;-144.99;100.00;52342.09;5046797;28;20016;-67
2023/05/27 02:05:56;;;;;;;;;;;;;;;-144.99;99.82;52348.22;5051512;28;19943;-67
2023/05/27 02:08:22;;;;;;;;;;;;;;;-144.99;100.00;52380.84;5043157;28;20190;-67
2023/05/27 02:10:49;;;;;;;;;;;;;;;-144.99;100.00;52354.34;5042328;28;20006;-69
2023/05/27 02:13:16;;;;;;;;;;;;;;;-144.99;100.00;52362.50;5044101;28;19925;-68
2023/05/27 02:15:44;;;;;;;;;;;;;;;-144.99;100.00;52362.50;5051390;28;19959;-70
2023/05/27 02:18:12;;;;;;;;;;;;;;;-144.99;99.95;52366.56;5044177;28;19929;-69
2023/05/27 02:20:39;;;;;;;;;;;;;;;-144.99;99.69;52329.88;5046343;28;20023;-67
2023/05/27 02:23:08;;;;;;;;;;;;;;;-144.99;99.98;52350.25;5043404;28;19935;-68
2023/05/27 02:25:35;;;;;;;;;;;;;;;-144.99;99.38;52354.34;5038220;28;19933;-65
2023/05/27 02:28:03;;;;;;;;;;;;;;;-144.99;99.20;52329.88;5035938;28;19943;-66
2023/05/27 02:30:30;;;;;;;;;;;;;;;-144.99;99.28;52366.56;5037406;28;20377;-64
2023/05/27 02:32:59;;;;;;;;;;;;;;;-144.99;99.20;52378.78;5036534;28;20034;-64
2023/05/27 02:35:25;;;;;;;;;;;;;;;-144.99;99.93;52382.88;5036185;28;19939;-63
2023/05/27 02:37:52;;;;;;;;;;;;;;;-144.99;100.00;52391.03;5037668;28;20375;-69
2023/05/27 02:40:25;;;;;;;;;;;;;;;-144.99;99.74;52356.38;5035227;28;19994;-64
2023/05/27 02:42:52;;;;;;;;;;;;;;;-144.99;99.53;52374.72;5055261;28;20092;-64
2023/05/27 02:45:19;;;;;;;;;;;;;;;-144.99;99.72;52354.34;5044236;28;19994;-69
2023/05/27 02:47:46;;;;;;;;;;;;;;;-144.99;100.00;52338.03;5046072;28;19947;-66
2023/05/27 02:50:14;;;;;;;;;;;;;;;-144.99;100.00;52362.50;5048644;28;20022;-66
2023/05/27 02:52:41;;;;;;;;;;;;;;;-144.99;99.97;52346.19;5047562;28;20020;-66
2023/05/27 02:55:08;;;;;;;;;;;;;;;-144.99;99.98;52358.41;5044278;28;20011;-66
2023/05/27 02:57:35;;;;;;;;;;;;;;;-144.99;100.00;52350.25;5043175;28;19964;-69
2023/05/27 03:00:01;;;;;;;;;;;;;;;-144.99;100.00;52350.25;5046915;28;19925;-68
2023/05/27 03:02:28;;;;;;;;;;;;;;;-144.99;100.00;52366.56;5057130;28;19951;-68
2023/05/27 03:04:56;;;;;;;;;;;;;;;-144.99;100.00;52354.34;5056639;28;19929;-68
2023/05/27 03:07:24;;;;;;;;;;;;;;;-144.99;100.00;52370.63;5055401;28;20059;-68
2023/05/27 03:09:51;;;;;;;;;;;;;;;-144.99;100.00;52313.56;5056761;28;19935;-66
2023/05/27 03:12:18;;;;;;;;;;;;;;;-144.99;100.00;52366.56;5081231;22;20005;-69
2023/05/27 03:14:45;;;;;;;;;;;;;;;-144.99;100.00;52315.59;5071448;28;19924;-68
2023/05/27 03:17:11;;;;;;;;;;;;;;;-144.99;100.00;52378.78;5072128;28;19974;-68
2023/05/27 03:19:38;;;;;;;;;;;;;;;-144.99;100.00;52370.63;5069592;28;19944;-71
2023/05/27 03:22:06;;;;;;;;;;;;;;;-144.99;100.00;52346.19;5065524;28;20024;-71
2023/05/27 03:24:35;;;;;;;;;;;;;;;-144.99;100.00;52346.19;5061459;28;19936;-71
2023/05/27 03:27:03;;;;;;;;;;;;;;;-144.99;100.00;52382.88;5056436;28;19925;-68
2023/05/27 03:29:30;;;;;;;;;;;;;;;-144.99;100.00;52358.41;5045540;28;20374;-70
2023/05/27 03:31:57;;;;;;;;;;;;;;;-144.99;100.00;52407.31;5040903;28;19928;-69
2023/05/27 03:34:23;;;;;;;;;;;;;;;-144.99;100.00;52356.38;5038310;28;20499;-69
2023/05/27 03:36:50;;;;;;;;;;;;;;;-144.99;100.00;52378.78;5038594;28;20082;-65
2023/05/27 03:39:17;;;;;;;;;;;;;;;-144.99;100.00;52346.19;5052438;28;20039;-71
2023/05/27 03:41:45;;;;;;;;;;;;;;;-144.99;100.00;52380.84;5052187;28;19944;-70
2023/05/27 03:44:12;;;;;;;;;;;;;;;-144.99;100.00;52364.53;5045841;28;19925;-71
2023/05/27 03:46:38;;;;;;;;;;;;;;;-144.99;100.00;52370.63;5045599;28;19931;-71
2023/05/27 03:49:05;;;;;;;;;;;;;;;-144.99;100.00;52362.50;5038562;28;21325;-70
2023/05/27 03:51:32;;;;;;;;;;;;;;;-144.99;100.00;52340.06;5037462;28;19932;-69
2023/05/27 03:53:59;;;;;;;;;;;;;;;-144.99;100.00;52317.66;5037035;28;19932;-69
2023/05/27 03:56:28;;;;;;;;;;;;;;;-144.99;100.00;52374.72;5037156;28;19933;-69
2023/05/27 03:58:57;;;;;;;;;;;;;;;-144.99;100.00;52378.78;5038900;28;20235;-69
2023/05/27 04:01:23;;;;;;;;;;;;;;;-144.99;100.00;52382.88;5038523;28;19932;-69
2023/05/27 04:03:50;;;;;;;;;;;;;;;-144.99;100.00;52364.53;5037635;28;20027;-75
2023/05/27 04:06:17;;;;;;;;;;;;;;;-144.99;100.00;52386.94;5039853;28;19955;-74
2023/05/27 04:08:44;;;;;;;;;;;;;;;-144.99;100.00;52350.25;5048724;28;19924;-75
2023/05/27 04:11:11;;;;;;;;;;;;;;;-144.99;100.00;52384.91;5050960;28;19932;-75
2023/05/27 04:13:38;;;;;;;;;;;;;;;-144.99;100.00;52370.63;5043737;28;20040;-75
2023/05/27 04:16:06;;;;;;;;;;;;;;;-144.99;100.00;52388.97;5047938;28;19931;-74
2023/05/27 04:18:33;;;;;;;;;;;;;;;-144.99;100.00;52366.56;5041061;28;20011;-74
2023/05/27 04:21:00;;;;;;;;;;;;;;;-144.99;100.00;52358.41;5036866;28;19925;-74
2023/05/27 04:23:27;;;;;;;;;;;;;;;-144.99;100.00;52354.34;5037375;28;19929;-74
2023/05/27 04:25:53;;;;;;;;;;;;;;;-144.99;100.00;52364.53;5036280;28;19928;-75
2023/05/27 04:28:20;;;;;;;;;;;;;;;-144.99;100.00;52352.28;5042958;28;20023;-66
2023/05/27 04:30:47;;;;;;;;;;;;;;;-144.99;100.00;52354.34;5038475;28;19933;-66
2023/05/27 04:33:15;;;;;;;;;;;;;;;-144.99;100.00;52358.41;5038160;28;19940;-68
2023/05/27 04:35:43;;;;;;;;;;;;;;;-144.99;100.00;52338.03;5035829;28;20015;-69
2023/05/27 04:38:10;;;;;;;;;;;;;;;-144.99;100.00;52384.91;5043330;28;19925;-68
2023/05/27 04:40:37;;;;;;;;;;;;;;;-144.99;100.00;52366.56;5046300;28;19946;-70
2023/05/27 04:43:06;;;;;;;;;;;;;;;-144.99;100.00;52323.75;5042438;28;19929;-70
2023/05/27 04:45:34;;;;;;;;;;;;;;;-144.99;100.00;52309.50;5043703;28;20259;-71
2023/05/27 04:48:01;;;;;;;;;;;;;;;-144.99;100.00;52325.81;5041874;28;19998;-70
2023/05/27 04:50:29;;;;;;;;;;;;;;;-144.99;100.00;52382.88;5037897;28;20333;-71
2023/05/27 04:52:55;;;;;;;;;;;;;;;-144.99;100.00;52291.16;5034960;28;19928;-71
2023/05/27 04:55:22;;;;;;;;;;;;;;;-144.99;100.00;52317.66;5037525;28;20070;-71
2023/05/27 04:57:49;;;;;;;;;;;;;;;-144.99;99.56;52342.09;5043778;28;19936;-69
2023/05/27 05:00:22;;;;;;;;;;;;;;;-144.99;99.29;52313.56;5049134;28;19928;-69
2023/05/27 05:02:49;;;;;;;;;;;;;;;-144.99;98.92;52329.88;5049369;28;20377;-69
2023/05/27 05:05:16;;;;;;;;;;;;;;;-144.99;98.72;52333.94;5049303;28;20605;-74
2023/05/27 05:07:44;;;;;;;;;;;;;;;-144.99;98.25;52289.13;5049689;28;20090;-71
2023/05/27 05:10:11;;;;;;;;;;;;;;;-144.99;98.17;52329.88;5048345;28;19933;-70
2023/05/27 05:12:38;;;;;;;;;;;;;;;-144.99;97.78;52362.50;5049365;28;19936;-70
2023/05/27 05:15:07;;;;;;;;;;;;;;;-144.99;97.60;52293.19;5049016;28;20234;-70
2023/05/27 05:17:33;;;;;;;;;;;;;;;-144.99;97.32;52329.88;5043902;28;19925;-71
2023/05/27 05:20:00;;;;;;;;;;;;;;;-144.99;97.04;52313.56;5046241;28;20028;-68
2023/05/27 05:22:28;;;;;;;;;;;;;;;-144.99;97.15;52329.88;5042471;28;20001;-76
2023/05/27 05:24:56;;;;;;;;;;;;;;;-144.99;96.65;52315.59;5049395;28;20316;-73
2023/05/27 05:27:23;;;;;;;;;;;;;;;-144.99;96.33;52307.47;5049705;28;19929;-75
2023/05/27 05:29:52;;;;;;;;;;;;;;;-144.99;96.35;52313.56;5040292;28;22083;-72
2023/05/27 05:32:18;;;;;;;;;;;;;;;-144.99;96.14;52313.56;5037408;28;20433;-70
2023/05/27 05:34:45;;;;;;;;;;;;;;;-144.99;96.63;52295.22;5036608;28;19925;-71
2023/05/27 05:37:12;;;;;;;;;;;;;;;-144.99;96.07;52315.59;5033536;28;20008;-69
2023/05/27 05:39:38;;;;;;;;;;;;;;;-144.99;95.65;52301.34;5041380;28;19924;-71
2023/05/27 05:42:07;;;;;;;;;;;;;;;-144.99;95.27;52317.66;5041331;28;19925;-72
2023/05/27 05:44:35;;;;;;;;;;;;;;;-144.99;95.11;52317.66;5045006;28;19979;-72
2023/05/27 05:47:02;;;;;;;;;;;;;;;-144.99;94.69;52329.88;5045162;28;19925;-73
2023/05/27 05:49:28;;;;;;;;;;;;;;;-144.99;94.34;52297.25;5046122;28;20305;-72
2023/05/27 05:51:55;;;;;;;;;;;;;;;-144.99;94.10;52315.59;5043122;28;20175;-75
2023/05/27 05:54:22;;;;;;;;;;;;;;;-144.99;94.51;52272.81;5038095;28;19925;-71
2023/05/27 05:56:48;;;;;;;;;;;;;;;-144.99;94.38;52305.41;5037703;28;20270;-71
2023/05/27 05:59:16;;;;;;;;;;;;;;;-144.99;94.20;52280.97;5037784;28;19932;-72
2023/05/27 06:01:43;;;;;;;;;;;;;;;-144.99;93.96;52305.41;5036679;28;19924;-71
2023/05/27 06:04:10;;;;;;;;;;;;;;;-144.99;93.73;52313.56;5037487;28;20019;-72
2023/05/27 06:06:36;;;;;;;;;;;;;;;-144.99;93.23;52313.56;5033046;28;19940;-70
2023/05/27 06:09:05;;;;;;;;;;;;;;;-144.99;93.13;52289.13;5039414;28;19955;-70
2023/05/27 06:11:32;;;;;;;;;;;;;;;-144.99;92.05;52260.56;5048868;28;19925;-71
2023/05/27 06:13:58;;;;;;;;;;;;;;;-144.99;91.66;52342.09;5041591;28;20028;-70
2023/05/27 06:16:28;;;;;;;;;;;;;;;-144.99;91.12;52272.81;5042577;28;19929;-70
2023/05/27 06:18:55;;;;;;;;;;;;;;;-144.99;90.91;52260.56;5038448;28;19929;-70
2023/05/27 06:21:22;;;;;;;;;;;;;;;-144.99;90.52;52280.97;5036112;28;20091;-71
2023/05/27 06:23:49;;;;;;;;;;;;;;;-144.99;90.14;52309.50;5037343;28;19928;-70
2023/05/27 06:26:15;;;;;;;;;;;;;;;-144.99;89.80;52256.50;5036184;28;19931;-70
2023/05/27 06:28:42;;;;;;;;;;;;;;;-144.99;89.53;52301.34;5036685;28;19979;-67
2023/05/27 06:31:09;;;;;;;;;;;;;;;-144.99;89.28;52240.19;5037839;28;19925;-68
2023/05/27 06:33:37;;;;;;;;;;;;;;;-144.99;89.16;52236.13;5037823;28;19925;-68
2023/05/27 06:36:04;;;;;;;;;;;;;;;-144.99;88.65;52248.34;5037241;28;19933;-68
2023/05/27 06:38:30;;;;;;;;;;;;;;;-144.99;88.11;52258.53;5039002;28;19929;-68
2023/05/27 06:40:57;;;;;;;;;;;;;;;-144.99;87.71;52238.16;5037479;28;19929;-68
2023/05/27 06:43:24;;;;;;;;;;;;;;;-144.99;87.28;52248.34;5043587;28;19928;-68
2023/05/27 06:45:50;;;;;;;;;;;;;;;-144.99;86.46;52244.28;5035908;28;19929;-71
2023/05/27 06:48:17;;;;;;;;;;;;;;;-144.99;86.40;52240.19;5033751;28;19932;-69
2023/05/27 06:50:45;;;;;;;;;;;;;;;-144.99;86.00;52232.03;5033693;28;19928;-70
2023/05/27 06:53:13;;;;;;;;;;;;;;;-144.99;85.27;52264.66;5032574;28;20638;-71
2023/05/27 06:55:39;;;;;;;;;;;;;;;-144.99;84.35;52268.72;5032384;28;20019;-70
2023/05/27 06:58:06;;;;;;;;;;;;;;;-144.99;84.53;52248.34;5039590;28;19931;-72
2023/05/27 07:00:33;;;;;;;;;;;;;;;-144.99;84.16;52252.44;5053526;28;19974;-71
2023/05/27 07:03:01;;;;;;;;;;;;;;;-144.99;82.71;52268.72;5049612;28;20372;-71
2023/05/27 07:05:27;;;;;;;;;;;;;;;-144.99;82.13;52276.88;5054259;28;19925;-69
2023/05/27 07:07:55;;;;;;;;;;;;;;;-144.99;81.89;52240.19;5052124;28;19976;-67
2023/05/27 07:10:22;;;;;;;;;;;;;;;-144.99;81.07;52244.28;5062320;28;19951;-69
2023/05/27 07:12:51;;;;;;;;;;;;;;;-144.99;81.03;52227.97;5053084;28;20341;-69
2023/05/27 07:15:17;;;;;;;;;;;;;;;-144.99;81.05;52272.81;5061774;28;19935;-67
2023/05/27 07:17:44;;;;;;;;;;;;;;;-144.99;80.91;52225.94;5053596;28;19928;-68
2023/05/27 07:20:11;;;;;;;;;;;;;;;-144.99;80.21;52234.09;5045580;28;19925;-76
2023/05/27 07:22:38;;;;;;;;;;;;;;;-144.99;80.11;52268.72;5059228;28;19967;-76
2023/05/27 07:25:07;;;;;;;;;;;;;;;-144.99;79.40;52232.03;5048831;28;19925;-74
2023/05/27 07:27:34;;;;;;;;;;;;;;;-144.99;79.14;52219.81;5053550;28;19972;-72
2023/05/27 07:30:01;;;;;;;;;;;;;;;-144.99;78.89;52232.03;5051002;28;20027;-71
2023/05/27 07:32:28;;;;;;;;;;;;;;;-144.99;78.82;52205.53;5058363;28;20355;-74
2023/05/27 07:34:55;;;;;;;;;;;;;;;-144.99;78.27;52219.81;5047924;28;20053;-75
2023/05/27 07:37:23;;;;;;;;;;;;;;;-144.99;77.91;52240.19;5044220;28;19936;-74
2023/05/27 07:39:50;;;;;;;;;;;;;;;-144.99;77.70;52207.59;5041250;28;19925;-75
2023/05/27 07:42:19;;;;;;;;;;;;;;;-144.99;77.86;52209.63;5035512;28;20019;-75
2023/05/27 07:44:45;;;;;;;;;;;;;;;-144.99;77.09;52179.06;5033549;28;19933;-74
2023/05/27 07:47:12;;;;;;;;;;;;;;;-144.99;76.50;52232.03;5035849;28;19925;-76
2023/05/27 07:49:39;;;;;;;;;;;;;;;-144.99;76.36;52221.84;5048429;28;20004;-74
2023/05/27 07:52:06;;;;;;;;;;;;;;;-144.99;76.71;52223.88;5042890;28;20003;-74
2023/05/27 07:54:32;;;;;;;;;;;;;;;-144.99;76.56;52236.13;5036760;28;20012;-75
2023/05/27 07:56:59;;;;;;;;;;;;;;;-144.99;76.13;52195.34;5043150;28;20111;-74
2023/05/27 07:59:29;;;;;;;;;;;;;;;-144.99;76.33;52211.66;5044775;28;19935;-74
2023/05/27 08:01:55;;;;;;;;;;;;;;;-144.99;75.97;52244.28;5049794;28;19932;-73
2023/05/27 08:04:22;;;;;;;;;;;;;;;-144.99;75.92;52195.34;5048317;28;20370;-73
2023/05/27 08:06:49;;;;;;;;;;;;;;;-144.99;76.16;52199.44;4697182;28;10000343;-74
2023/05/27 08:09:16;;;;;;;;;;;;;;;-144.99;76.00;52227.97;5048655;28;19924;-73
2023/05/27 08:11:42;;;;;;;;;;;;;;;-144.99;75.96;52211.66;5045897;28;19943;-74
2023/05/27 08:14:09;;;;;;;;;;;;;;;-144.99;75.33;52172.94;5056994;28;19929;-74
2023/05/27 08:16:37;;;;;;;;;;;;;;;-144.99;74.75;52211.66;5055801;28;19947;-74
2023/05/27 08:19:04;;;;;;;;;;;;;;;-144.99;74.09;52199.44;5046732;28;19935;-73
2023/05/27 08:21:31;;;;;;;;;;;;;;;-144.99;73.99;52223.88;5047371;28;19943;-66
2023/05/27 08:23:57;;;;;;;;;;;;;;;-144.99;73.86;52209.63;5045789;28;19940;-65
2023/05/27 08:26:26;;;;;;;;;;;;;;;-144.99;73.95;52183.13;5043131;28;20418;-63
2023/05/27 08:28:54;;;;;;;;;;;;;;;-144.99;73.63;52219.81;5041006;28;20255;-64
2023/05/27 08:31:20;;;;;;;;;;;;;;;-144.99;72.80;52215.75;5039461;28;20035;-58
2023/05/27 08:33:48;;;;;;;;;;;;;;;-144.99;73.07;52223.88;5047090;28;19964;-69
2023/05/27 08:36:18;;;;;;;;;;;;;;;-144.99;72.88;52185.16;5059802;28;19928;-69
2023/05/27 08:38:45;;;;;;;;;;;;;;;-144.99;71.72;52179.06;5061274;28;19929;-69
2023/05/27 08:41:11;;;;;;;;;;;;;;;-144.99;71.42;52191.28;5048782;28;19947;-69
2023/05/27 08:43:38;;;;;;;;;;;;;;;-144.99;71.21;52195.34;5049327;28;19968;-70
2023/05/27 08:46:05;;;;;;;;;;;;;;;-144.99;70.73;52174.97;5050681;28;19951;-67
2023/05/27 08:48:32;;;;;;;;;;;;;;;-144.99;69.34;52183.13;5050208;28;20039;-70
2023/05/27 08:51:01;;;;;;;;;;;;;;;-144.99;69.82;52187.19;5048778;28;20020;-69
2023/05/27 08:53:29;;;;;;;;;;;;;;;-144.99;69.89;52170.91;5055112;28;19943;-69
2023/05/27 08:55:57;;;;;;;;;;;;;;;-144.99;69.38;52195.34;5050239;28;20377;-70
2023/05/27 08:58:24;;;;;;;;;;;;;;;-144.99;69.25;52183.13;5049463;28;19936;-70
2023/05/27 09:00:51;;;;;;;;;;;;;;;-144.99;69.35;52174.97;5047200;28;19936;-69
2023/05/27 09:03:18;;;;;;;;;;;;;;;-144.99;68.73;52191.28;5044533;28;19955;-71
2023/05/27 09:05:45;;;;;;;;;;;;;;;-144.99;68.87;52146.44;5060592;28;19929;-70
2023/05/27 09:08:13;;;;;;;;;;;;;;;-144.99;68.32;52199.44;5050500;28;20388;-69
2023/05/27 09:10:40;;;;;;;;;;;;;;;-144.99;67.86;52152.56;5050212;28;20529;-69
2023/05/27 09:13:06;;;;;;;;;;;;;;;-144.99;67.54;52136.25;5051318;28;20373;-70
2023/05/27 09:15:33;;;;;;;;;;;;;;;-144.99;67.52;52156.63;5049066;28;19932;-69
2023/05/27 09:18:00;;;;;;;;;;;;;;;-144.99;66.91;52130.13;5043212;28;20313;-71
2023/05/27 09:20:27;;;;;;;;;;;;;;;-144.99;66.79;52170.91;5050579;28;19975;-71
2023/05/27 09:22:57;;;;;;;;;;;;;;;-144.99;66.59;52181.09;5046680;28;19924;-72
2023/05/27 09:25:26;;;;;;;;;;;;;;;-144.99;66.22;52130.13;5049338;28;19982;-70
2023/05/27 09:27:54;;;;;;;;;;;;;;;-144.99;66.59;52162.75;5046749;28;20031;-70
2023/05/27 09:30:21;;;;;;;;;;;;;;;-144.99;66.82;52150.53;5042786;28;19936;-70
2023/05/27 09:32:48;;;;;;;;;;;;;;;-144.99;66.79;52109.75;5045161;28;20368;-70
2023/05/27 09:35:15;;;;;;;;;;;;;;;-144.99;66.50;52164.78;5056075;28;20320;-70
2023/05/27 09:37:43;;;;;;;;;;;;;;;-144.99;66.19;52117.91;5055014;28;19955;-71
2023/05/27 09:40:12;;;;;;;;;;;;;;;-144.99;67.09;52130.13;5048174;28;19964;-70
2023/05/27 09:42:46;;;;;;;;;;;;;;;-144.99;66.63;52150.53;5048233;28;19929;-68
2023/05/27 09:45:14;;;;;;;;;;;;;;;-144.99;66.03;52154.59;5046496;28;20356;-68
2023/05/27 09:47:42;;;;;;;;;;;;;;;-144.99;66.85;52193.31;5048314;28;19928;-68
2023/05/27 09:50:09;;;;;;;;;;;;;;;-144.99;66.71;52174.97;5048258;28;19939;-67
2023/05/27 09:52:37;;;;;;;;;;;;;;;-144.99;66.98;52199.44;5048608;28;20344;-68
2023/05/27 09:55:04;;;;;;;;;;;;;;;-144.99;66.68;52146.44;5046820;28;19925;-66
2023/05/27 09:57:31;;;;;;;;;;;;;;;-144.99;66.71;52146.44;5048732;28;19931;-66
2023/05/27 10:00:00;;;;;;;;;;;;;;;-144.99;67.02;52146.44;5047786;28;19929;-65
2023/05/27 10:02:27;;;;;;;;;;;;;;;-144.99;66.43;52203.50;5048550;28;20446;-66
2023/05/27 10:04:54;;;;;;;;;;;;;;;-144.99;65.76;52193.31;5045523;28;19932;-66
2023/05/27 10:07:22;;;;;;;;;;;;;;;-144.99;66.32;52164.78;5048288;28;20449;-66
2023/05/27 10:09:50;;;;;;;;;;;;;;;-144.99;66.05;52154.59;5050631;28;19929;-66
2023/05/27 10:12:18;;;;;;;;;;;;;;;-144.99;65.42;52148.47;5048034;28;19925;-67
2023/05/27 10:14:46;;;;;;;;;;;;;;;-144.99;65.34;52156.63;5049726;28;19959;-69
2023/05/27 10:17:14;;;;;;;;;;;;;;;-144.99;64.86;52191.28;5050403;28;19928;-65
2023/05/27 10:19:58;;;;;;;;;;;;;;;-144.99;65.81;52179.06;5050617;28;20050;-65
2023/05/27 10:22:25;;;;;;;;;;;;;;;-144.99;65.24;52170.91;5043958;28;19931;-65
2023/05/27 10:24:53;;;;;;;;;;;;;;;-144.99;64.78;52097.53;5041266;28;19987;-66
2023/05/27 10:27:21;;;;;;;;;;;;;;;-144.99;64.64;52101.59;5044980;28;19929;-65
2023/05/27 10:29:57;;;;;;;;;;;;;;;-144.99;63.12;52081.22;5049935;28;19941;-65
2023/05/27 10:32:26;;;;;;;;;;;;;;;-144.99;62.87;52044.53;5044033;28;20002;-65
2023/05/27 10:34:53;;;;;;;;;;;;;;;-144.99;62.51;52069.00;5046422;28;19928;-65
2023/05/27 10:37:23;;;;;;;;;;;;;;;-144.99;61.79;52044.53;5046432;28;19935;-66
2023/05/27 10:39:56;;;;;;;;;;;;;;;-144.99;62.04;52034.34;5043130;28;19928;-65
2023/05/27 10:42:24;;;;;;;;;;;;;;;-144.99;61.52;52038.44;5041641;28;19961;-66
2023/05/27 10:44:52;;;;;;;;;;;;;;;-144.99;61.40;52109.75;5046121;28;20241;-66
2023/05/27 10:47:29;;;;;;;;;;;;;;;-144.99;61.11;52115.88;5044539;28;19928;-67
2023/05/27 10:49:58;;;;;;;;;;;;;;;-144.99;61.69;52166.81;5046429;28;19933;-66
2023/05/27 10:52:26;;;;;;;;;;;;;;;-144.99;61.84;52105.69;5046525;28;19924;-66
2023/05/27 10:54:54;;;;;;;;;;;;;;;-144.99;61.81;52134.22;5044440;28;20341;-66
2023/05/27 10:57:22;;;;;;;;;;;;;;;-144.99;61.82;52124.03;5044463;28;19925;-65
2023/05/27 10:59:49;;;;;;;;;;;;;;;-144.99;61.65;52156.63;5044748;28;19928;-66
2023/05/27 11:02:16;;;;;;;;;;;;;;;-144.99;62.09;52154.59;5051031;28;19974;-66
2023/05/27 11:04:43;;;;;;;;;;;;;;;-144.99;62.56;52079.19;5047959;28;19966;-67
2023/05/27 11:07:11;;;;;;;;;;;;;;;-144.99;62.22;52062.88;5074740;28;19937;-65
2023/05/27 11:09:44;;;;;;;;;;;;;;;-144.99;62.20;52073.06;5044930;28;20381;-65
2023/05/27 11:12:16;;;;;;;;;;;;;;;-144.99;60.93;52042.50;5042741;28;19951;-66
2023/05/27 11:14:42;;;;;;;;;;;;;;;-144.99;60.73;52054.72;5040122;28;19933;-65
2023/05/27 11:17:10;;;;;;;;;;;;;;;-144.99;60.28;52056.78;5039329;28;20394;-66
2023/05/27 11:19:39;;;;;;;;;;;;;;;-144.99;59.72;52026.19;5039695;28;19939;-65
2023/05/27 11:22:06;;;;;;;;;;;;;;;-144.99;59.55;52003.78;5044214;28;20295;-67
2023/05/27 11:24:34;;;;;;;;;;;;;;;-144.99;59.37;52032.31;5044566;28;19925;-66
2023/05/27 11:27:02;;;;;;;;;;;;;;;-144.99;58.98;52056.78;5045706;28;19936;-65
2023/05/27 11:29:29;;;;;;;;;;;;;;;-144.99;60.03;52083.25;5047402;28;19924;-66
2023/05/27 11:31:56;;;;;;;;;;;;;;;-144.99;60.30;52126.06;5051772;28;19990;-66
2023/05/27 11:34:23;;;;;;;;;;;;;;;-144.99;60.13;52105.69;5049201;28;19924;-66
2023/05/27 11:36:50;;;;;;;;;;;;;;;-144.99;60.22;52089.38;5049455;28;19929;-66
2023/05/27 11:39:17;;;;;;;;;;;;;;;-144.99;60.01;52069.00;5051251;28;19928;-66
2023/05/27 11:41:52;;;;;;;;;;;;;;;-144.99;59.82;52089.38;5049699;28;19976;-67
2023/05/27 11:44:19;;;;;;;;;;;;;;;-144.99;59.26;52091.41;5048920;28;19932;-66
2023/05/27 11:46:46;;;;;;;;;;;;;;;-144.99;59.97;52170.91;5046971;28;19929;-66
2023/05/27 11:49:14;;;;;;;;;;;;;;;-144.99;60.21;52060.84;5047792;28;19954;-66
2023/05/27 11:51:41;;;;;;;;;;;;;;;-144.99;59.94;52097.53;5043148;28;20416;-66
2023/05/27 11:54:08;;;;;;;;;;;;;;;-144.99;59.87;52109.75;5049423;28;19925;-66
2023/05/27 11:56:35;;;;;;;;;;;;;;;-144.99;59.75;52097.53;5049117;28;19935;-65
2023/05/27 11:59:03;;;;;;;;;;;;;;;-144.99;59.96;52128.09;5046936;28;19947;-65
2023/05/27 12:01:30;;;;;;;;;;;;;;;-144.99;60.17;52126.06;5043344;28;19928;-65
2023/05/27 12:03:56;;;;;;;;;;;;;;;-144.99;60.18;52134.22;5081307;28;20067;-65
2023/05/27 12:06:23;;;;;;;;;;;;;;;-144.99;60.23;52166.81;5048334;28;19982;-66
2023/05/27 12:08:50;;;;;;;;;;;;;;;-144.99;59.76;52166.81;5052652;28;19940;-66
2023/05/27 12:11:16;;;;;;;;;;;;;;;-144.99;60.32;52105.69;5043025;28;20039;-66
2023/05/27 12:13:43;;;;;;;;;;;;;;;-144.99;59.85;52099.56;5040488;28;19936;-66
2023/05/27 12:16:12;;;;;;;;;;;;;;;-144.99;60.52;52134.22;5047807;28;19939;-65
2023/05/27 12:18:38;;;;;;;;;;;;;;;-144.99;61.07;52103.66;5046092;28;20346;-67
2023/05/27 12:21:05;;;;;;;;;;;;;;;-144.99;60.90;52113.84;4697248;28;10000154;-66
2023/05/27 12:23:32;;;;;;;;;;;;;;;-144.99;59.97;52097.53;5045307;28;19925;-66
2023/05/27 12:25:58;;;;;;;;;;;;;;;-144.99;59.26;52052.69;5044982;28;20292;-65